Terminal Aerodrome Forecast
Issued by NWS

Home | Current Version | Previous Version | Text Only | Print | Product List | Glossary On
Versions: 1 2 3 4 5 6 7 8 9 10 11 12 13 14 15 16 17 18 19
000
FTUS43 KMQT 291100
TAFIWD
TAF
KIWD 291135Z 2912/3012 26008KT 5SM -SHSN OVC015
      TEMPO 2912/2914 2SM -SHSN
     FM291600 31009KT 5SM -SHSN OVC025
     FM301000 28007KT P6SM BKN030
      AMD LTD TO CLD VIS AND WIND=

USA.gov is the U.S. government's official web portal to all federal, state and local government web resources and services.